sensor_id;sensor_type;location;lat;lon;timestamp;pressure;altitude;pressure_sealevel;temperature
68952;BMP180;56000;51.146;17.112;2023-02-13T00:01:00;102254.80;;;6.10
68952;BMP180;56000;51.146;17.112;2023-02-13T00:03:33;102261.60;;;6.10
68952;BMP180;56000;51.146;17.112;2023-02-13T00:06:07;102259.80;;;6.10
68952;BMP180;56000;51.146;17.112;2023-02-13T00:08:43;102262.00;;;6.10
68952;BMP180;56000;51.146;17.112;2023-02-13T00:11:16;102257.20;;;6.12
68952;BMP180;56000;51.146;17.112;2023-02-13T00:13:51;102254.20;;;6.10
68952;BMP180;56000;51.146;17.112;2023-02-13T00:16:24;102250.80;;;6.10
68952;BMP180;56000;51.146;17.112;2023-02-13T00:18:57;102250.20;;;6.10
68952;BMP180;56000;51.146;17.112;2023-02-13T00:21:30;102248.80;;;6.12
68952;BMP180;56000;51.146;17.112;2023-02-13T00:24:03;102246.80;;;6.10
68952;BMP180;56000;51.146;17.112;2023-02-13T00:26:36;102247.40;;;6.10
68952;BMP180;56000;51.146;17.112;2023-02-13T00:29:10;102245.40;;;6.10
68952;BMP180;56000;51.146;17.112;2023-02-13T00:31:45;102242.80;;;6.10
68952;BMP180;56000;51.146;17.112;2023-02-13T00:34:18;102239.00;;;6.10
68952;BMP180;56000;51.146;17.112;2023-02-13T00:36:51;102234.80;;;6.10
68952;BMP180;56000;51.146;17.112;2023-02-13T00:39:25;102239.40;;;6.10
68952;BMP180;56000;51.146;17.112;2023-02-13T00:41:58;102234.40;;;6.10
68952;BMP180;56000;51.146;17.112;2023-02-13T00:44:31;102244.60;;;6.12
68952;BMP180;56000;51.146;17.112;2023-02-13T00:47:04;102247.00;;;6.12
68952;BMP180;56000;51.146;17.112;2023-02-13T00:49:38;102244.20;;;6.10
68952;BMP180;56000;51.146;17.112;2023-02-13T00:52:14;102243.80;;;6.10
68952;BMP180;56000;51.146;17.112;2023-02-13T00:54:47;102244.60;;;6.10
68952;BMP180;56000;51.146;17.112;2023-02-13T00:57:20;102240.40;;;6.10
68952;BMP180;56000;51.146;17.112;2023-02-13T00:59:53;102238.40;;;6.10
68952;BMP180;56000;51.146;17.112;2023-02-13T01:02:26;102241.60;;;6.10
68952;BMP180;56000;51.146;17.112;2023-02-13T01:05:00;102242.00;;;6.10
68952;BMP180;56000;51.146;17.112;2023-02-13T01:07:33;102236.20;;;6.10
68952;BMP180;56000;51.146;17.112;2023-02-13T01:10:07;102239.80;;;6.10
68952;BMP180;56000;51.146;17.112;2023-02-13T01:12:41;102240.00;;;6.10
68952;BMP180;56000;51.146;17.112;2023-02-13T01:15:14;102244.00;;;6.10
68952;BMP180;56000;51.146;17.112;2023-02-13T01:17:50;102237.80;;;6.08
68952;BMP180;56000;51.146;17.112;2023-02-13T01:20:24;102236.20;;;6.10
68952;BMP180;56000;51.146;17.112;2023-02-13T01:22:58;102235.60;;;6.08
68952;BMP180;56000;51.146;17.112;2023-02-13T01:25:34;102238.00;;;6.04
68952;BMP180;56000;51.146;17.112;2023-02-13T01:28:07;102234.80;;;6.02
68952;BMP180;56000;51.146;17.112;2023-02-13T01:30:40;102233.80;;;6.02
68952;BMP180;56000;51.146;17.112;2023-02-13T01:33:14;102228.20;;;6.00
68952;BMP180;56000;51.146;17.112;2023-02-13T01:35:50;102230.80;;;6.00
68952;BMP180;56000;51.146;17.112;2023-02-13T01:38:23;102222.60;;;6.04
68952;BMP180;56000;51.146;17.112;2023-02-13T01:40:59;102231.60;;;6.02
68952;BMP180;56000;51.146;17.112;2023-02-13T01:43:50;102226.60;;;6.02
68952;BMP180;56000;51.146;17.112;2023-02-13T01:46:29;102225.60;;;6.08
68952;BMP180;56000;51.146;17.112;2023-02-13T01:49:11;102222.60;;;6.10
68952;BMP180;56000;51.146;17.112;2023-02-13T01:51:46;102220.60;;;6.10
68952;BMP180;56000;51.146;17.112;2023-02-13T01:54:26;102222.20;;;6.10
68952;BMP180;56000;51.146;17.112;2023-02-13T01:57:07;102215.40;;;6.10
68952;BMP180;56000;51.146;17.112;2023-02-13T01:59:49;102216.80;;;6.10
68952;BMP180;56000;51.146;17.112;2023-02-13T02:02:24;102219.00;;;6.10
68952;BMP180;56000;51.146;17.112;2023-02-13T02:04:58;102214.60;;;6.14
68952;BMP180;56000;51.146;17.112;2023-02-13T02:07:32;102210.00;;;6.20
68952;BMP180;56000;51.146;17.112;2023-02-13T02:10:13;102201.60;;;6.20
68952;BMP180;56000;51.146;17.112;2023-02-13T02:12:51;102205.60;;;6.20
68952;BMP180;56000;51.146;17.112;2023-02-13T02:15:25;102205.80;;;6.20
68952;BMP180;56000;51.146;17.112;2023-02-13T02:17:58;102209.40;;;6.20
68952;BMP180;56000;51.146;17.112;2023-02-13T02:20:48;102206.00;;;6.20
68952;BMP180;56000;51.146;17.112;2023-02-13T02:24:06;102204.40;;;6.14
68952;BMP180;56000;51.146;17.112;2023-02-13T02:27:19;102205.80;;;6.10
68952;BMP180;56000;51.146;17.112;2023-02-13T02:30:44;102204.00;;;6.18
68952;BMP180;56000;51.146;17.112;2023-02-13T02:33:31;102199.20;;;6.20
68952;BMP180;56000;51.146;17.112;2023-02-13T02:36:21;102205.80;;;6.20
68952;BMP180;56000;51.146;17.112;2023-02-13T02:39:05;102199.80;;;6.20
68952;BMP180;56000;51.146;17.112;2023-02-13T02:41:53;102197.60;;;6.20
68952;BMP180;56000;51.146;17.112;2023-02-13T02:44:44;102206.20;;;6.20
68952;BMP180;56000;51.146;17.112;2023-02-13T02:47:26;102202.60;;;6.20
68952;BMP180;56000;51.146;17.112;2023-02-13T02:50:32;102197.80;;;6.20
68952;BMP180;56000;51.146;17.112;2023-02-13T02:53:22;102200.40;;;6.20
68952;BMP180;56000;51.146;17.112;2023-02-13T02:56:09;102200.80;;;6.20
68952;BMP180;56000;51.146;17.112;2023-02-13T02:58:49;102205.20;;;6.20
68952;BMP180;56000;51.146;17.112;2023-02-13T03:01:42;102202.20;;;6.20
68952;BMP180;56000;51.146;17.112;2023-02-13T03:04:37;102199.20;;;6.20
68952;BMP180;56000;51.146;17.112;2023-02-13T03:07:29;102204.20;;;6.20
68952;BMP180;56000;51.146;17.112;2023-02-13T03:10:05;102207.60;;;6.20
68952;BMP180;56000;51.146;17.112;2023-02-13T03:13:02;102207.60;;;6.20
68952;BMP180;56000;51.146;17.112;2023-02-13T03:16:03;102201.80;;;6.20
68952;BMP180;56000;51.146;17.112;2023-02-13T03:18:56;102206.20;;;6.20
68952;BMP180;56000;51.146;17.112;2023-02-13T03:21:52;102194.00;;;6.20
68952;BMP180;56000;51.146;17.112;2023-02-13T03:24:55;102196.80;;;6.20
68952;BMP180;56000;51.146;17.112;2023-02-13T03:27:42;102193.60;;;6.20
68952;BMP180;56000;51.146;17.112;2023-02-13T03:30:59;102187.20;;;6.22
68952;BMP180;56000;51.146;17.112;2023-02-13T03:33:59;102192.40;;;6.22
68952;BMP180;56000;51.146;17.112;2023-02-13T03:36:45;102201.80;;;6.22
68952;BMP180;56000;51.146;17.112;2023-02-13T03:39:46;102199.60;;;6.20
68952;BMP180;56000;51.146;17.112;2023-02-13T03:42:28;102203.40;;;6.20
68952;BMP180;56000;51.146;17.112;2023-02-13T03:45:04;102202.80;;;6.20
68952;BMP180;56000;51.146;17.112;2023-02-13T03:47:58;102208.80;;;6.16
68952;BMP180;56000;51.146;17.112;2023-02-13T03:50:42;102208.40;;;6.10
68952;BMP180;56000;51.146;17.112;2023-02-13T03:53:16;102203.60;;;6.10
68952;BMP180;56000;51.146;17.112;2023-02-13T03:55:51;102204.60;;;6.10
68952;BMP180;56000;51.146;17.112;2023-02-13T03:58:45;102200.60;;;6.10
68952;BMP180;56000;51.146;17.112;2023-02-13T04:01:39;102201.00;;;6.04
68952;BMP180;56000;51.146;17.112;2023-02-13T04:04:18;102201.40;;;6.00
68952;BMP180;56000;51.146;17.112;2023-02-13T04:06:56;102199.60;;;6.00
68952;BMP180;56000;51.146;17.112;2023-02-13T04:09:31;102203.80;;;6.00
68952;BMP180;56000;51.146;17.112;2023-02-13T04:12:15;102206.20;;;6.00
68952;BMP180;56000;51.146;17.112;2023-02-13T04:14:56;102209.60;;;6.00
68952;BMP180;56000;51.146;17.112;2023-02-13T04:17:35;102203.60;;;6.00
68952;BMP180;56000;51.146;17.112;2023-02-13T04:20:12;102195.00;;;6.00
68952;BMP180;56000;51.146;17.112;2023-02-13T04:22:47;102192.60;;;5.94
68952;BMP180;56000;51.146;17.112;2023-02-13T04:25:20;102191.60;;;5.98
68952;BMP180;56000;51.146;17.112;2023-02-13T04:27:54;102185.80;;;6.00
68952;BMP180;56000;51.146;17.112;2023-02-13T04:30:27;102193.40;;;6.00
68952;BMP180;56000;51.146;17.112;2023-02-13T04:33:00;102194.20;;;6.00
68952;BMP180;56000;51.146;17.112;2023-02-13T04:35:33;102195.20;;;6.00
68952;BMP180;56000;51.146;17.112;2023-02-13T04:38:07;102194.00;;;6.00
68952;BMP180;56000;51.146;17.112;2023-02-13T04:40:40;102192.20;;;6.00
68952;BMP180;56000;51.146;17.112;2023-02-13T04:43:13;102194.40;;;6.00
68952;BMP180;56000;51.146;17.112;2023-02-13T04:45:48;102192.80;;;6.04
68952;BMP180;56000;51.146;17.112;2023-02-13T04:48:21;102195.40;;;6.10
68952;BMP180;56000;51.146;17.112;2023-02-13T04:50:54;102193.00;;;6.10
68952;BMP180;56000;51.146;17.112;2023-02-13T04:53:28;102193.20;;;6.10
68952;BMP180;56000;51.146;17.112;2023-02-13T04:56:01;102191.20;;;6.10
68952;BMP180;56000;51.146;17.112;2023-02-13T04:58:35;102181.60;;;6.10
68952;BMP180;56000;51.146;17.112;2023-02-13T05:01:15;102183.00;;;6.10
68952;BMP180;56000;51.146;17.112;2023-02-13T05:03:49;102178.20;;;6.10
68952;BMP180;56000;51.146;17.112;2023-02-13T05:06:22;102171.20;;;6.10
68952;BMP180;56000;51.146;17.112;2023-02-13T05:08:55;102175.00;;;6.10
68952;BMP180;56000;51.146;17.112;2023-02-13T05:11:28;102174.40;;;6.10
68952;BMP180;56000;51.146;17.112;2023-02-13T05:14:01;102175.00;;;6.10
68952;BMP180;56000;51.146;17.112;2023-02-13T05:16:35;102174.60;;;6.10
68952;BMP180;56000;51.146;17.112;2023-02-13T05:19:08;102173.80;;;6.08
68952;BMP180;56000;51.146;17.112;2023-02-13T05:21:41;102175.60;;;6.02
68952;BMP180;56000;51.146;17.112;2023-02-13T05:24:32;102178.20;;;6.00
68952;BMP180;56000;51.146;17.112;2023-02-13T05:27:06;102178.20;;;6.00
68952;BMP180;56000;51.146;17.112;2023-02-13T05:29:39;102176.60;;;6.00
68952;BMP180;56000;51.146;17.112;2023-02-13T05:32:12;102183.20;;;6.00
68952;BMP180;56000;51.146;17.112;2023-02-13T05:34:45;102179.40;;;6.00
68952;BMP180;56000;51.146;17.112;2023-02-13T05:37:18;102182.80;;;6.00
68952;BMP180;56000;51.146;17.112;2023-02-13T05:39:51;102173.80;;;6.00
68952;BMP180;56000;51.146;17.112;2023-02-13T05:42:24;102176.60;;;6.00
68952;BMP180;56000;51.146;17.112;2023-02-13T05:44:57;102178.40;;;6.00
68952;BMP180;56000;51.146;17.112;2023-02-13T05:47:30;102181.40;;;6.00
68952;BMP180;56000;51.146;17.112;2023-02-13T05:50:04;102174.00;;;6.00
68952;BMP180;56000;51.146;17.112;2023-02-13T05:52:37;102177.40;;;6.00
68952;BMP180;56000;51.146;17.112;2023-02-13T05:55:11;102179.20;;;6.00
68952;BMP180;56000;51.146;17.112;2023-02-13T05:57:44;102188.20;;;6.00
68952;BMP180;56000;51.146;17.112;2023-02-13T06:00:20;102183.80;;;6.00
68952;BMP180;56000;51.146;17.112;2023-02-13T06:02:53;102187.40;;;6.00
68952;BMP180;56000;51.146;17.112;2023-02-13T06:05:27;102190.20;;;6.00
68952;BMP180;56000;51.146;17.112;2023-02-13T06:08:00;102194.80;;;6.00
68952;BMP180;56000;51.146;17.112;2023-02-13T06:10:33;102194.00;;;6.00
68952;BMP180;56000;51.146;17.112;2023-02-13T06:13:06;102190.60;;;6.00
68952;BMP180;56000;51.146;17.112;2023-02-13T06:15:39;102189.60;;;6.00
68952;BMP180;56000;51.146;17.112;2023-02-13T06:18:13;102196.60;;;6.00
68952;BMP180;56000;51.146;17.112;2023-02-13T06:20:46;102191.80;;;6.10
68952;BMP180;56000;51.146;17.112;2023-02-13T06:23:19;102201.40;;;6.10
68952;BMP180;56000;51.146;17.112;2023-02-13T06:25:52;102193.80;;;6.10
68952;BMP180;56000;51.146;17.112;2023-02-13T06:28:25;102209.20;;;6.10
68952;BMP180;56000;51.146;17.112;2023-02-13T06:30:59;102204.60;;;6.14
68952;BMP180;56000;51.146;17.112;2023-02-13T06:33:33;102201.80;;;6.20
68952;BMP180;56000;51.146;17.112;2023-02-13T06:36:07;102203.00;;;6.20
68952;BMP180;56000;51.146;17.112;2023-02-13T06:38:40;102212.20;;;6.20
68952;BMP180;56000;51.146;17.112;2023-02-13T06:41:13;102210.20;;;6.20
68952;BMP180;56000;51.146;17.112;2023-02-13T06:43:46;102211.80;;;6.20
68952;BMP180;56000;51.146;17.112;2023-02-13T06:46:19;102210.20;;;6.20
68952;BMP180;56000;51.146;17.112;2023-02-13T06:48:52;102212.00;;;6.20
68952;BMP180;56000;51.146;17.112;2023-02-13T06:51:26;102216.80;;;6.28
68952;BMP180;56000;51.146;17.112;2023-02-13T06:53:59;102220.40;;;6.30
68952;BMP180;56000;51.146;17.112;2023-02-13T06:56:33;102215.80;;;6.30
68952;BMP180;56000;51.146;17.112;2023-02-13T06:59:06;102218.60;;;6.30
68952;BMP180;56000;51.146;17.112;2023-02-13T07:01:39;102215.00;;;6.30
68952;BMP180;56000;51.146;17.112;2023-02-13T07:04:12;102208.00;;;6.30
68952;BMP180;56000;51.146;17.112;2023-02-13T07:06:45;102215.80;;;6.30
68952;BMP180;56000;51.146;17.112;2023-02-13T07:09:18;102211.60;;;6.34
68952;BMP180;56000;51.146;17.112;2023-02-13T07:11:52;102206.40;;;6.40
68952;BMP180;56000;51.146;17.112;2023-02-13T07:14:25;102207.40;;;6.40
68952;BMP180;56000;51.146;17.112;2023-02-13T07:16:58;102204.60;;;6.40
68952;BMP180;56000;51.146;17.112;2023-02-13T07:19:32;102200.00;;;6.40
68952;BMP180;56000;51.146;17.112;2023-02-13T07:22:05;102202.40;;;6.50
68952;BMP180;56000;51.146;17.112;2023-02-13T07:24:38;102200.20;;;6.50
68952;BMP180;56000;51.146;17.112;2023-02-13T07:27:11;102201.40;;;6.50
68952;BMP180;56000;51.146;17.112;2023-02-13T07:29:44;102203.80;;;6.54
68952;BMP180;56000;51.146;17.112;2023-02-13T07:32:17;102201.60;;;6.60
68952;BMP180;56000;51.146;17.112;2023-02-13T07:34:51;102203.00;;;6.60
68952;BMP180;56000;51.146;17.112;2023-02-13T07:37:33;102199.80;;;6.60
68952;BMP180;56000;51.146;17.112;2023-02-13T07:40:08;102202.80;;;6.60
68952;BMP180;56000;51.146;17.112;2023-02-13T07:42:41;102207.00;;;6.70
68952;BMP180;56000;51.146;17.112;2023-02-13T07:45:14;102203.00;;;6.70
68952;BMP180;56000;51.146;17.112;2023-02-13T07:47:47;102199.80;;;6.70
68952;BMP180;56000;51.146;17.112;2023-02-13T07:50:21;102201.20;;;6.78
68952;BMP180;56000;51.146;17.112;2023-02-13T07:52:58;102204.20;;;6.80
68952;BMP180;56000;51.146;17.112;2023-02-13T07:55:31;102204.20;;;6.80
68952;BMP180;56000;51.146;17.112;2023-02-13T07:58:04;102201.00;;;6.80
68952;BMP180;56000;51.146;17.112;2023-02-13T08:00:37;102197.00;;;6.80
68952;BMP180;56000;51.146;17.112;2023-02-13T08:03:11;102203.60;;;6.80
68952;BMP180;56000;51.146;17.112;2023-02-13T08:05:47;102205.80;;;6.80
68952;BMP180;56000;51.146;17.112;2023-02-13T08:08:21;102208.20;;;6.90
68952;BMP180;56000;51.146;17.112;2023-02-13T08:10:54;102202.20;;;6.90
68952;BMP180;56000;51.146;17.112;2023-02-13T08:13:45;102205.60;;;6.98
68952;BMP180;56000;51.146;17.112;2023-02-13T08:16:18;102207.00;;;7.00
68952;BMP180;56000;51.146;17.112;2023-02-13T08:18:51;102206.80;;;7.06
68952;BMP180;56000;51.146;17.112;2023-02-13T08:21:25;102208.80;;;7.10
68952;BMP180;56000;51.146;17.112;2023-02-13T08:23:58;102201.20;;;7.14
68952;BMP180;56000;51.146;17.112;2023-02-13T08:26:33;102200.20;;;7.20
68952;BMP180;56000;51.146;17.112;2023-02-13T08:29:06;102202.40;;;7.20
68952;BMP180;56000;51.146;17.112;2023-02-13T08:31:39;102205.20;;;7.20
68952;BMP180;56000;51.146;17.112;2023-02-13T08:34:13;102207.60;;;7.30
68952;BMP180;56000;51.146;17.112;2023-02-13T08:36:46;102200.80;;;7.30
68952;BMP180;56000;51.146;17.112;2023-02-13T08:39:19;102202.40;;;7.40
68952;BMP180;56000;51.146;17.112;2023-02-13T08:41:52;102201.40;;;7.40
68952;BMP180;56000;51.146;17.112;2023-02-13T08:44:25;102202.60;;;7.40
68952;BMP180;56000;51.146;17.112;2023-02-13T08:46:59;102207.40;;;7.40
68952;BMP180;56000;51.146;17.112;2023-02-13T08:49:34;102202.40;;;7.40
68952;BMP180;56000;51.146;17.112;2023-02-13T08:52:07;102203.60;;;7.40
68952;BMP180;56000;51.146;17.112;2023-02-13T08:54:40;102200.00;;;7.40
68952;BMP180;56000;51.146;17.112;2023-02-13T08:57:13;102203.60;;;7.50
68952;BMP180;56000;51.146;17.112;2023-02-13T08:59:46;102204.40;;;7.50
68952;BMP180;56000;51.146;17.112;2023-02-13T09:02:19;102202.40;;;7.50
68952;BMP180;56000;51.146;17.112;2023-02-13T09:04:53;102207.20;;;7.50
68952;BMP180;56000;51.146;17.112;2023-02-13T09:07:26;102210.80;;;7.60
68952;BMP180;56000;51.146;17.112;2023-02-13T09:10:00;102212.20;;;7.60
68952;BMP180;56000;51.146;17.112;2023-02-13T09:12:33;102215.00;;;7.60
68952;BMP180;56000;51.146;17.112;2023-02-13T09:15:07;102219.20;;;7.62
68952;BMP180;56000;51.146;17.112;2023-02-13T09:17:40;102217.20;;;7.60
68952;BMP180;56000;51.146;17.112;2023-02-13T09:20:15;102218.60;;;7.60
68952;BMP180;56000;51.146;17.112;2023-02-13T09:22:48;102227.00;;;7.60
68952;BMP180;56000;51.146;17.112;2023-02-13T09:25:21;102235.20;;;7.60
68952;BMP180;56000;51.146;17.112;2023-02-13T09:27:54;102231.20;;;7.50
68952;BMP180;56000;51.146;17.112;2023-02-13T09:30:28;102247.40;;;7.40
68952;BMP180;56000;51.146;17.112;2023-02-13T09:33:01;102253.00;;;7.30
68952;BMP180;56000;51.146;17.112;2023-02-13T09:35:34;102243.40;;;7.30
68952;BMP180;56000;51.146;17.112;2023-02-13T09:38:07;102250.20;;;7.28
68952;BMP180;56000;51.146;17.112;2023-02-13T09:40:45;102252.80;;;7.20
68952;BMP180;56000;51.146;17.112;2023-02-13T09:43:31;102252.80;;;7.18
68952;BMP180;56000;51.146;17.112;2023-02-13T09:46:13;102253.00;;;7.20
68952;BMP180;56000;51.146;17.112;2023-02-13T09:48:50;102255.00;;;7.30
68952;BMP180;56000;51.146;17.112;2023-02-13T09:51:26;102255.40;;;7.40
68952;BMP180;56000;51.146;17.112;2023-02-13T09:54:02;102256.80;;;7.56
68952;BMP180;56000;51.146;17.112;2023-02-13T09:56:50;102254.80;;;7.70
68952;BMP180;56000;51.146;17.112;2023-02-13T09:59:52;102254.80;;;7.80
68952;BMP180;56000;51.146;17.112;2023-02-13T10:02:47;102265.20;;;7.90
68952;BMP180;56000;51.146;17.112;2023-02-13T10:05:50;102258.80;;;8.10
68952;BMP180;56000;51.146;17.112;2023-02-13T10:08:45;102252.80;;;8.20
68952;BMP180;56000;51.146;17.112;2023-02-13T10:11:37;102254.40;;;8.30
68952;BMP180;56000;51.146;17.112;2023-02-13T10:14:20;102251.60;;;8.30
68952;BMP180;56000;51.146;17.112;2023-02-13T10:17:00;102251.20;;;8.40
68952;BMP180;56000;51.146;17.112;2023-02-13T10:19:40;102247.20;;;8.40
68952;BMP180;56000;51.146;17.112;2023-02-13T10:22:18;102246.00;;;8.40
68952;BMP180;56000;51.146;17.112;2023-02-13T10:24:56;102251.80;;;8.40
68952;BMP180;56000;51.146;17.112;2023-02-13T10:27:33;102240.00;;;8.58
68952;BMP180;56000;51.146;17.112;2023-02-13T10:30:13;102247.00;;;8.80
68952;BMP180;56000;51.146;17.112;2023-02-13T10:32:59;102240.20;;;9.00
68952;BMP180;56000;51.146;17.112;2023-02-13T10:35:59;102238.80;;;9.40
68952;BMP180;56000;51.146;17.112;2023-02-13T10:38:37;102237.80;;;9.50
68952;BMP180;56000;51.146;17.112;2023-02-13T10:41:34;102231.00;;;9.60
68952;BMP180;56000;51.146;17.112;2023-02-13T10:44:34;102232.40;;;9.70
68952;BMP180;56000;51.146;17.112;2023-02-13T10:47:35;102233.40;;;9.68
68952;BMP180;56000;51.146;17.112;2023-02-13T10:50:21;102228.20;;;9.60
68952;BMP180;56000;51.146;17.112;2023-02-13T10:53:06;102228.00;;;9.60
68952;BMP180;56000;51.146;17.112;2023-02-13T10:56:02;102224.00;;;9.40
68952;BMP180;56000;51.146;17.112;2023-02-13T10:58:52;102226.00;;;9.30
68952;BMP180;56000;51.146;17.112;2023-02-13T11:01:33;102219.20;;;9.20
68952;BMP180;56000;51.146;17.112;2023-02-13T11:04:12;102216.60;;;9.20
68952;BMP180;56000;51.146;17.112;2023-02-13T11:06:59;102216.00;;;9.10
68952;BMP180;56000;51.146;17.112;2023-02-13T11:09:39;102215.80;;;8.90
68952;BMP180;56000;51.146;17.112;2023-02-13T11:12:25;102214.00;;;8.80
68952;BMP180;56000;51.146;17.112;2023-02-13T11:15:01;102208.40;;;8.70
68952;BMP180;56000;51.146;17.112;2023-02-13T11:17:38;102210.80;;;8.60
68952;BMP180;56000;51.146;17.112;2023-02-13T11:20:34;102203.60;;;8.68
68952;BMP180;56000;51.146;17.112;2023-02-13T11:23:32;102201.60;;;8.90
68952;BMP180;56000;51.146;17.112;2023-02-13T11:26:08;102204.80;;;8.98
68952;BMP180;56000;51.146;17.112;2023-02-13T11:28:52;102192.80;;;8.90
68952;BMP180;56000;51.146;17.112;2023-02-13T11:31:29;102199.80;;;8.80
68952;BMP180;56000;51.146;17.112;2023-02-13T11:34:25;102196.60;;;8.70
68952;BMP180;56000;51.146;17.112;2023-02-13T11:37:16;102198.20;;;8.56
68952;BMP180;56000;51.146;17.112;2023-02-13T11:39:49;102200.80;;;8.40
68952;BMP180;56000;51.146;17.112;2023-02-13T11:42:35;102193.20;;;8.30
68952;BMP180;56000;51.146;17.112;2023-02-13T11:45:25;102197.40;;;8.30
68952;BMP180;56000;51.146;17.112;2023-02-13T11:47:58;102189.80;;;8.20
68952;BMP180;56000;51.146;17.112;2023-02-13T11:50:33;102193.00;;;8.20
68952;BMP180;56000;51.146;17.112;2023-02-13T11:53:20;102194.20;;;8.20
68952;BMP180;56000;51.146;17.112;2023-02-13T11:56:09;102194.60;;;8.30
68952;BMP180;56000;51.146;17.112;2023-02-13T11:58:43;102201.20;;;8.30
68952;BMP180;56000;51.146;17.112;2023-02-13T12:01:33;102200.40;;;8.40
68952;BMP180;56000;51.146;17.112;2023-02-13T12:04:14;102208.00;;;8.30
68952;BMP180;56000;51.146;17.112;2023-02-13T12:07:03;102211.00;;;8.22
68952;BMP180;56000;51.146;17.112;2023-02-13T12:09:44;102206.40;;;8.20
68952;BMP180;56000;51.146;17.112;2023-02-13T12:12:24;102207.00;;;8.16
68952;BMP180;56000;51.146;17.112;2023-02-13T12:14:58;102208.60;;;8.10
68952;BMP180;56000;51.146;17.112;2023-02-13T12:17:35;102210.00;;;8.10
68952;BMP180;56000;51.146;17.112;2023-02-13T12:20:15;102211.40;;;8.00
68952;BMP180;56000;51.146;17.112;2023-02-13T12:23:02;102211.20;;;7.90
68952;BMP180;56000;51.146;17.112;2023-02-13T12:26:11;102200.60;;;7.80
68952;BMP180;56000;51.146;17.112;2023-02-13T12:29:02;102201.60;;;7.80
68952;BMP180;56000;51.146;17.112;2023-02-13T12:32:12;102196.60;;;7.70
68952;BMP180;56000;51.146;17.112;2023-02-13T12:35:13;102186.00;;;7.72
68952;BMP180;56000;51.146;17.112;2023-02-13T12:37:58;102187.40;;;7.78
68952;BMP180;56000;51.146;17.112;2023-02-13T12:40:53;102181.60;;;7.70
68952;BMP180;56000;51.146;17.112;2023-02-13T12:43:57;102178.00;;;7.70
68952;BMP180;56000;51.146;17.112;2023-02-13T12:46:42;102185.80;;;7.60
68952;BMP180;56000;51.146;17.112;2023-02-13T12:49:43;102187.80;;;7.60
68952;BMP180;56000;51.146;17.112;2023-02-13T12:52:38;102184.80;;;7.60
68952;BMP180;56000;51.146;17.112;2023-02-13T12:55:32;102188.20;;;7.52
68952;BMP180;56000;51.146;17.112;2023-02-13T12:58:28;102185.20;;;7.50
68952;BMP180;56000;51.146;17.112;2023-02-13T13:01:11;102179.80;;;7.50
68952;BMP180;56000;51.146;17.112;2023-02-13T13:03:58;102176.40;;;7.50
68952;BMP180;56000;51.146;17.112;2023-02-13T13:06:53;102174.80;;;7.50
68952;BMP180;56000;51.146;17.112;2023-02-13T13:09:44;102172.60;;;7.50
68952;BMP180;56000;51.146;17.112;2023-02-13T13:12:29;102167.20;;;7.50
68952;BMP180;56000;51.146;17.112;2023-02-13T13:15:09;102171.40;;;7.60
68952;BMP180;56000;51.146;17.112;2023-02-13T13:17:58;102172.80;;;7.60
68952;BMP180;56000;51.146;17.112;2023-02-13T13:23:48;102177.60;;;7.70
68952;BMP180;56000;51.146;17.112;2023-02-13T13:26:29;102179.80;;;7.70
68952;BMP180;56000;51.146;17.112;2023-02-13T13:29:14;102186.00;;;7.70
68952;BMP180;56000;51.146;17.112;2023-02-13T13:31:54;102189.40;;;7.70
68952;BMP180;56000;51.146;17.112;2023-02-13T13:34:30;102189.00;;;7.68
68952;BMP180;56000;51.146;17.112;2023-02-13T13:37:13;102185.00;;;7.62
68952;BMP180;56000;51.146;17.112;2023-02-13T13:39:56;102184.80;;;7.60
68952;BMP180;56000;51.146;17.112;2023-02-13T13:42:37;102180.80;;;7.60
68952;BMP180;56000;51.146;17.112;2023-02-13T13:45:37;102177.00;;;7.60
68952;BMP180;56000;51.146;17.112;2023-02-13T13:48:56;102167.40;;;7.60
68952;BMP180;56000;51.146;17.112;2023-02-13T13:51:31;102167.20;;;7.58
68952;BMP180;56000;51.146;17.112;2023-02-13T13:54:33;102171.00;;;7.58
68952;BMP180;56000;51.146;17.112;2023-02-13T13:57:12;102169.00;;;7.50
68952;BMP180;56000;51.146;17.112;2023-02-13T14:00:27;102167.20;;;7.54
68952;BMP180;56000;51.146;17.112;2023-02-13T14:03:35;102163.40;;;7.50
68952;BMP180;56000;51.146;17.112;2023-02-13T14:06:11;102151.40;;;7.52
68952;BMP180;56000;51.146;17.112;2023-02-13T14:09:08;102156.40;;;7.50
68952;BMP180;56000;51.146;17.112;2023-02-13T14:12:43;102162.00;;;7.50
68952;BMP180;56000;51.146;17.112;2023-02-13T14:15:52;102166.60;;;7.50
68952;BMP180;56000;51.146;17.112;2023-02-13T14:18:26;102157.40;;;7.50
68952;BMP180;56000;51.146;17.112;2023-02-13T14:21:02;102159.60;;;7.50
68952;BMP180;56000;51.146;17.112;2023-02-13T14:23:46;102152.60;;;7.50
68952;BMP180;56000;51.146;17.112;2023-02-13T14:26:38;102152.80;;;7.50
68952;BMP180;56000;51.146;17.112;2023-02-13T14:29:30;102150.00;;;7.50
68952;BMP180;56000;51.146;17.112;2023-02-13T14:32:19;102150.00;;;7.50
68952;BMP180;56000;51.146;17.112;2023-02-13T14:34:59;102140.80;;;7.50
68952;BMP180;56000;51.146;17.112;2023-02-13T14:37:48;102141.60;;;7.40
68952;BMP180;56000;51.146;17.112;2023-02-13T14:40:47;102137.60;;;7.40
68952;BMP180;56000;51.146;17.112;2023-02-13T14:43:33;102134.40;;;7.40
68952;BMP180;56000;51.146;17.112;2023-02-13T14:46:22;102121.80;;;7.40
68952;BMP180;56000;51.146;17.112;2023-02-13T14:49:02;102119.40;;;7.40
68952;BMP180;56000;51.146;17.112;2023-02-13T14:51:43;102113.80;;;7.40
68952;BMP180;56000;51.146;17.112;2023-02-13T14:54:25;102110.00;;;7.40
68952;BMP180;56000;51.146;17.112;2023-02-13T14:57:19;102113.40;;;7.40
68952;BMP180;56000;51.146;17.112;2023-02-13T15:00:00;102117.40;;;7.40
68952;BMP180;56000;51.146;17.112;2023-02-13T15:02:40;102114.60;;;7.32
68952;BMP180;56000;51.146;17.112;2023-02-13T15:05:17;102105.20;;;7.30
68952;BMP180;56000;51.146;17.112;2023-02-13T15:07:58;102103.60;;;7.30
68952;BMP180;56000;51.146;17.112;2023-02-13T15:10:45;102090.80;;;7.30
68952;BMP180;56000;51.146;17.112;2023-02-13T15:13:22;102090.60;;;7.30
68952;BMP180;56000;51.146;17.112;2023-02-13T15:16:02;102094.60;;;7.30